createdAt,value
2023-05-13T00:00:28.655Z,0.00
2023-05-13T00:01:29.015Z,0.00
2023-05-13T00:02:29.215Z,0.00
2023-05-13T00:03:29.607Z,0.00
2023-05-13T00:04:29.809Z,0.00
2023-05-13T00:05:30.118Z,0.00
2023-05-13T00:06:30.600Z,0.00
2023-05-13T00:07:30.663Z,0.00
2023-05-13T00:08:30.984Z,0.00
2023-05-13T00:09:31.284Z,0.00
2023-05-13T00:10:31.601Z,0.00
2023-05-13T00:11:31.910Z,0.00
2023-05-13T00:12:32.260Z,0.00
2023-05-13T00:13:32.566Z,0.00
2023-05-13T00:14:32.880Z,0.00
2023-05-13T00:15:33.187Z,0.00
2023-05-13T00:16:33.549Z,0.00
2023-05-13T00:17:33.834Z,0.00
2023-05-13T00:18:34.174Z,0.00
2023-05-13T00:19:34.476Z,0.00
2023-05-13T00:20:34.813Z,0.00
2023-05-13T00:21:35.122Z,0.00
2023-05-13T00:22:35.439Z,0.00
2023-05-13T00:23:35.759Z,0.00
2023-05-13T00:24:36.083Z,0.00
2023-05-13T00:25:36.396Z,0.00
2023-05-13T00:26:36.718Z,0.00
2023-05-13T00:27:37.088Z,0.00
2023-05-13T00:28:37.287Z,0.00
2023-05-13T00:29:37.614Z,0.00
2023-05-13T00:30:37.908Z,0.00
2023-05-13T00:31:38.251Z,0.00
2023-05-13T00:32:38.685Z,0.00
2023-05-13T00:33:38.848Z,0.00
2023-05-13T00:34:39.221Z,0.00
2023-05-13T00:35:39.505Z,0.00
2023-05-13T00:36:39.838Z,0.00
2023-05-13T00:37:40.161Z,0.00
2023-05-13T00:38:40.461Z,0.00
2023-05-13T00:39:40.778Z,0.00
2023-05-13T00:40:41.107Z,0.00
2023-05-13T00:41:41.462Z,0.00
2023-05-13T00:42:41.747Z,0.00
2023-05-13T00:43:42.090Z,0.00
2023-05-13T00:44:42.408Z,0.00
2023-05-13T00:45:42.844Z,0.00
2023-05-13T00:46:43.025Z,0.00
2023-05-13T00:47:43.365Z,0.00
2023-05-13T00:48:43.660Z,0.00
2023-05-13T00:49:44.011Z,0.00
2023-05-13T00:50:44.321Z,0.00
2023-05-13T00:51:44.643Z,0.00
2023-05-13T00:52:44.931Z,0.00
2023-05-13T00:53:45.249Z,0.00
2023-05-13T00:54:45.578Z,0.00
2023-05-13T00:55:45.933Z,0.00
2023-05-13T00:56:46.223Z,0.00
2023-05-13T00:57:46.542Z,0.00
2023-05-13T00:58:46.854Z,0.00
2023-05-13T00:59:47.192Z,0.00
2023-05-13T01:00:47.526Z,0.00
2023-05-13T01:01:47.813Z,0.00
2023-05-13T01:02:48.175Z,0.00
2023-05-13T01:03:48.459Z,0.00
2023-05-13T01:04:48.857Z,0.00
2023-05-13T01:05:49.054Z,0.00
2023-05-13T01:06:49.351Z,0.00
2023-05-13T01:07:49.643Z,0.00
2023-05-13T01:08:49.977Z,0.00
2023-05-13T01:09:50.317Z,0.00
2023-05-13T01:10:50.618Z,0.00
2023-05-13T01:11:50.954Z,0.00
2023-05-13T01:12:51.222Z,0.00
2023-05-13T01:13:51.604Z,0.00
2023-05-13T01:14:51.916Z,0.00
2023-05-13T01:15:52.251Z,0.00
2023-05-13T01:16:52.632Z,0.00
2023-05-13T01:17:52.909Z,0.00
2023-05-13T01:18:53.230Z,0.00
2023-05-13T01:19:53.488Z,0.00
2023-05-13T01:20:53.785Z,0.00
2023-05-13T01:21:54.140Z,0.00
2023-05-13T01:22:54.443Z,0.00
2023-05-13T01:23:54.811Z,0.00
2023-05-13T01:24:55.081Z,0.00
2023-05-13T01:25:55.440Z,0.00
2023-05-13T01:26:55.740Z,0.00
2023-05-13T01:27:56.048Z,0.00
2023-05-13T01:28:56.356Z,0.00
2023-05-13T01:29:56.658Z,0.00
2023-05-13T01:30:57.033Z,0.00
2023-05-13T01:31:57.270Z,0.00
2023-05-13T01:32:57.501Z,0.00
2023-05-13T01:33:57.819Z,0.00
2023-05-13T01:34:58.103Z,0.00
2023-05-13T01:35:58.414Z,0.00
2023-05-13T01:36:58.739Z,0.00
2023-05-13T01:37:59.048Z,0.00
2023-05-13T01:38:59.348Z,0.00
2023-05-13T01:39:59.686Z,0.00
2023-05-13T01:41:00.015Z,0.00
2023-05-13T01:42:00.347Z,0.00
2023-05-13T01:43:00.667Z,0.00
2023-05-13T01:44:00.902Z,0.00
2023-05-13T01:45:01.180Z,0.00
2023-05-13T01:46:01.534Z,0.00
2023-05-13T01:47:01.777Z,0.00
2023-05-13T01:48:02.138Z,0.00
2023-05-13T01:49:02.372Z,0.00
2023-05-13T01:50:02.714Z,0.00
2023-05-13T01:51:03.089Z,0.00
2023-05-13T01:52:03.256Z,0.00
2023-05-13T01:53:03.574Z,0.00
2023-05-13T01:54:03.946Z,0.00
2023-05-13T01:55:04.138Z,0.00
2023-05-13T01:56:04.451Z,0.00
2023-05-13T01:57:04.815Z,0.00
2023-05-13T01:58:05.124Z,0.00
2023-05-13T01:59:05.441Z,0.00
2023-05-13T02:00:05.771Z,0.00
2023-05-13T02:01:06.107Z,0.00
2023-05-13T02:02:06.470Z,0.00
2023-05-13T02:03:06.766Z,0.00
2023-05-13T02:04:07.029Z,0.00
2023-05-13T02:05:07.325Z,0.00
2023-05-13T02:06:07.652Z,0.00
2023-05-13T02:07:07.949Z,0.00
2023-05-13T02:08:08.267Z,0.00
2023-05-13T02:09:08.617Z,0.00
2023-05-13T02:10:08.872Z,0.00
2023-05-13T02:11:09.062Z,0.00
2023-05-13T02:12:09.366Z,0.00
2023-05-13T02:13:09.714Z,0.00
2023-05-13T02:14:10.039Z,0.00
2023-05-13T02:15:10.335Z,0.00
2023-05-13T02:16:10.676Z,0.00
2023-05-13T02:17:10.909Z,0.00
2023-05-13T02:18:11.219Z,0.00
2023-05-13T02:19:11.626Z,0.00
2023-05-13T02:20:11.869Z,0.00
2023-05-13T02:21:12.184Z,0.00
2023-05-13T02:22:12.502Z,0.00
2023-05-13T02:23:12.829Z,0.00
2023-05-13T02:24:13.126Z,0.00
2023-05-13T02:25:13.450Z,0.00
2023-05-13T02:26:13.768Z,4.00
2023-05-13T02:27:14.121Z,4.00
2023-05-13T02:28:14.472Z,4.00
2023-05-13T02:29:14.756Z,0.00
2023-05-13T02:30:15.076Z,0.00
2023-05-13T02:31:15.393Z,0.00
2023-05-13T02:32:15.756Z,4.00
2023-05-13T02:33:16.088Z,0.00
2023-05-13T02:34:16.284Z,4.00
2023-05-13T02:35:16.600Z,4.00
2023-05-13T02:36:16.896Z,4.00
2023-05-13T02:37:17.293Z,4.00
2023-05-13T02:38:17.572Z,4.00
2023-05-13T02:39:17.915Z,4.00
2023-05-13T02:40:18.246Z,8.00
2023-05-13T02:41:18.568Z,8.00
2023-05-13T02:42:18.875Z,12.00
2023-05-13T02:43:19.200Z,8.00
2023-05-13T02:44:19.528Z,12.00
2023-05-13T02:45:19.833Z,16.00
2023-05-13T02:46:20.233Z,16.00
2023-05-13T02:47:20.543Z,16.00
2023-05-13T02:48:20.835Z,16.00
2023-05-13T02:49:21.156Z,20.00
2023-05-13T02:50:21.641Z,24.00
2023-05-13T02:51:21.806Z,28.00
2023-05-13T02:52:21.992Z,28.00
2023-05-13T02:53:22.324Z,36.00
2023-05-13T02:54:22.668Z,40.00
2023-05-13T02:55:23.068Z,44.00
2023-05-13T02:56:23.253Z,52.00
2023-05-13T02:57:23.576Z,60.00
2023-05-13T02:58:23.899Z,68.00
2023-05-13T02:59:24.216Z,72.00
2023-05-13T03:00:24.593Z,84.00
2023-05-13T03:01:24.851Z,92.00
2023-05-13T03:02:25.140Z,104.00
2023-05-13T03:03:25.612Z,112.00
2023-05-13T03:04:25.590Z,124.00
2023-05-13T03:05:27.235Z,132.00
2023-05-13T03:06:26.327Z,140.00
2023-05-13T03:07:26.540Z,152.00
2023-05-13T03:08:26.751Z,164.00
2023-05-13T03:09:27.130Z,180.00
2023-05-13T03:10:27.361Z,192.00
2023-05-13T03:11:27.747Z,208.00
2023-05-13T03:12:27.934Z,224.00
2023-05-13T03:13:28.194Z,240.00
2023-05-13T03:14:28.561Z,260.00
2023-05-13T03:15:28.821Z,280.00
2023-05-13T03:16:29.111Z,300.00
2023-05-13T03:17:29.386Z,316.00
2023-05-13T03:18:29.710Z,340.00
2023-05-13T03:19:30.085Z,360.00
2023-05-13T03:20:30.293Z,380.00
2023-05-13T03:21:30.529Z,400.00
2023-05-13T03:22:30.809Z,416.00
2023-05-13T03:23:31.025Z,444.00
2023-05-13T03:24:31.238Z,468.00
2023-05-13T03:25:31.592Z,492.00
2023-05-13T03:26:31.794Z,512.00
2023-05-13T03:27:32.173Z,532.00
2023-05-13T03:28:32.385Z,552.00
2023-05-13T03:29:32.760Z,572.00
2023-05-13T03:30:32.966Z,592.00
2023-05-13T03:31:33.342Z,612.00
2023-05-13T03:32:33.603Z,632.00
2023-05-13T03:33:33.814Z,664.00
2023-05-13T03:34:34.054Z,692.00
2023-05-13T03:35:34.283Z,724.00
2023-05-13T03:36:34.503Z,748.00
2023-05-13T03:37:34.869Z,780.00
2023-05-13T03:38:35.085Z,816.00
2023-05-13T03:39:35.425Z,852.00
2023-05-13T03:40:35.748Z,880.00
2023-05-13T03:41:36.114Z,912.00
2023-05-13T03:42:36.345Z,952.00
2023-05-13T03:43:36.693Z,1000.00
2023-05-13T03:44:36.908Z,1056.00
2023-05-13T03:45:37.273Z,1120.00
2023-05-13T03:46:37.532Z,1192.00
2023-05-13T03:47:37.793Z,1292.00
2023-05-13T03:48:37.987Z,1388.00
2023-05-13T03:49:38.229Z,1488.00
2023-05-13T03:50:38.469Z,1564.00
2023-05-13T03:51:38.826Z,1620.00
2023-05-13T03:52:39.093Z,1660.00
2023-05-13T03:53:39.323Z,1692.00
2023-05-13T03:54:39.608Z,1756.00
2023-05-13T03:55:39.834Z,1840.00
2023-05-13T03:56:40.083Z,1912.00
2023-05-13T03:57:40.342Z,2040.00
2023-05-13T03:58:40.573Z,2144.00
2023-05-13T03:59:40.841Z,2212.00
2023-05-13T04:00:41.053Z,2244.00
2023-05-13T04:01:41.507Z,2224.00
2023-05-13T04:02:41.879Z,2256.00
2023-05-13T04:03:41.903Z,2276.00
2023-05-13T04:04:42.301Z,2292.00
2023-05-13T04:05:42.513Z,2316.00
2023-05-13T04:06:42.752Z,2348.00
2023-05-13T04:07:43.076Z,2356.00
2023-05-13T04:08:43.294Z,2376.00
2023-05-13T04:09:43.519Z,2392.00
2023-05-13T04:10:43.766Z,2452.00
2023-05-13T04:11:44.000Z,2548.00
2023-05-13T04:12:44.369Z,2624.00
2023-05-13T04:13:44.607Z,2656.00
2023-05-13T04:14:44.840Z,2712.00
2023-05-13T04:15:45.100Z,2864.00
2023-05-13T04:16:45.392Z,3036.00
2023-05-13T04:17:45.658Z,3144.00
2023-05-13T04:18:45.854Z,3260.00
2023-05-13T04:19:46.096Z,3400.00
2023-05-13T04:22:02.875Z,3748.00
2023-05-13T04:23:06.840Z,3848.00
2023-05-13T04:24:03.551Z,3924.00
2023-05-13T04:25:04.863Z,4060.00
2023-05-13T04:26:04.087Z,4192.00
2023-05-13T04:27:04.362Z,4296.00
2023-05-13T04:28:04.575Z,4440.00
2023-05-13T04:29:04.910Z,4656.00
2023-05-13T04:30:05.183Z,4792.00
2023-05-13T04:31:05.462Z,4880.00
2023-05-13T04:32:05.820Z,4972.00
2023-05-13T04:33:06.666Z,5148.00
2023-05-13T04:34:06.865Z,5280.00
2023-05-13T04:35:06.546Z,5308.00
2023-05-13T04:36:06.779Z,5192.00
2023-05-13T04:37:07.064Z,5108.00
2023-05-13T04:38:07.409Z,5016.00
2023-05-13T04:39:07.544Z,4884.00
2023-05-13T04:40:08.313Z,4848.00
2023-05-13T04:41:08.341Z,4824.00
2023-05-13T04:42:08.753Z,4868.00
2023-05-13T04:43:09.006Z,4784.00
2023-05-13T04:44:09.035Z,4980.00
2023-05-13T04:45:09.574Z,5048.00
2023-05-13T04:46:11.077Z,5112.00
2023-05-13T04:47:10.691Z,5140.00
2023-05-13T04:48:11.233Z,4988.00
2023-05-13T04:49:11.661Z,4724.00
2023-05-13T04:50:10.866Z,4532.00
2023-05-13T04:51:12.347Z,4608.00
2023-05-13T04:52:11.602Z,5140.00
2023-05-13T04:53:11.735Z,5488.00
2023-05-13T04:54:11.947Z,5676.00
2023-05-13T04:55:12.301Z,6544.00
2023-05-13T04:56:12.541Z,15840.00
2023-05-13T04:57:12.801Z,22176.00
2023-05-13T04:58:13.144Z,23264.00
2023-05-13T04:59:13.385Z,24256.00
2023-05-13T05:00:13.659Z,25312.00
2023-05-13T05:01:14.020Z,26592.00
2023-05-13T05:02:14.299Z,26720.00
2023-05-13T05:03:14.593Z,27168.00
2023-05-13T05:04:15.050Z,27904.00
2023-05-13T05:05:17.495Z,28352.00
2023-05-13T05:06:15.409Z,28576.00
2023-05-13T05:07:15.704Z,28864.00
2023-05-13T05:08:15.983Z,29504.00
2023-05-13T05:09:16.674Z,30528.00
2023-05-13T05:10:16.509Z,30784.00
2023-05-13T05:11:16.949Z,30624.00
2023-05-13T05:12:17.019Z,30368.00
2023-05-13T05:13:17.309Z,29856.00
2023-05-13T05:14:17.566Z,29984.00
2023-05-13T05:15:18.063Z,31456.00
2023-05-13T05:16:18.378Z,33152.00
2023-05-13T05:17:18.591Z,33984.00
2023-05-13T05:18:18.767Z,34816.00
2023-05-13T05:19:19.127Z,34656.00
2023-05-13T05:20:19.575Z,35072.00
2023-05-13T05:21:20.108Z,35104.00
2023-05-13T05:22:20.082Z,34304.00
2023-05-13T05:23:20.236Z,34432.00
2023-05-13T05:24:20.546Z,34400.00
2023-05-13T05:25:20.901Z,33664.00
2023-05-13T05:26:21.064Z,32832.00
2023-05-13T05:27:21.320Z,30976.00
2023-05-13T05:28:21.695Z,29184.00
2023-05-13T05:29:21.880Z,28704.00
2023-05-13T05:30:22.429Z,29216.00
2023-05-13T05:31:22.658Z,31136.00
2023-05-13T05:32:22.810Z,33888.00
2023-05-13T05:33:23.263Z,37184.00
2023-05-13T05:34:23.428Z,39712.00
2023-05-13T05:35:23.820Z,41184.00
2023-05-13T05:36:24.021Z,41728.00
2023-05-13T05:37:24.220Z,42368.00
2023-05-13T05:38:24.737Z,42592.00
2023-05-13T05:39:24.950Z,43040.00
2023-05-13T05:40:25.392Z,42912.00
2023-05-13T05:41:25.398Z,40192.00
2023-05-13T05:42:25.621Z,36544.00
2023-05-13T05:43:26.040Z,32608.00
2023-05-13T05:44:26.179Z,32160.00
2023-05-13T05:45:26.541Z,33120.00
2023-05-13T05:46:26.977Z,34112.00
2023-05-13T05:47:27.676Z,35328.00
2023-05-13T05:48:27.492Z,36672.00
2023-05-13T05:49:27.787Z,38688.00
2023-05-13T05:50:28.219Z,39136.00
2023-05-13T05:51:28.384Z,39424.00
2023-05-13T05:52:28.670Z,39200.00
2023-05-13T05:53:29.082Z,38848.00
2023-05-13T05:54:29.352Z,38496.00
2023-05-13T05:55:29.677Z,37952.00
2023-05-13T05:56:29.820Z,38016.00
2023-05-13T05:57:30.013Z,37632.00
2023-05-13T05:58:30.296Z,37184.00
2023-05-13T05:59:30.646Z,37664.00
2023-05-13T06:00:31.295Z,38208.00
2023-05-13T06:01:31.201Z,40160.00
2023-05-13T06:02:31.660Z,40512.00
2023-05-13T06:03:32.322Z,37600.00
2023-05-13T06:04:32.535Z,36288.00
2023-05-13T06:05:32.772Z,33920.00
2023-05-13T06:06:32.677Z,33952.00
2023-05-13T06:07:33.130Z,34592.00
2023-05-13T06:08:55.512Z,34752.00
2023-05-13T06:09:33.599Z,34624.00
2023-05-13T06:10:33.892Z,34560.00
2023-05-13T06:11:34.258Z,34016.00
2023-05-13T06:12:34.472Z,33568.00
2023-05-13T06:13:34.839Z,34592.00
2023-05-13T06:14:34.990Z,37056.00
2023-05-13T06:15:35.141Z,40832.00
2023-05-13T06:16:35.559Z,44832.00
2023-05-13T06:17:35.830Z,46656.00
2023-05-13T06:18:36.193Z,44288.00
2023-05-13T06:19:36.376Z,38720.00
2023-05-13T06:20:36.508Z,36512.00
2023-05-13T06:21:36.872Z,34368.00
2023-05-13T06:22:37.095Z,33184.00
2023-05-13T06:23:37.277Z,32224.00
2023-05-13T06:24:37.565Z,34976.00
2023-05-13T06:25:37.870Z,35264.00
2023-05-13T06:26:38.291Z,36320.00
2023-05-13T06:27:38.467Z,36288.00
2023-05-13T06:28:38.758Z,36800.00
2023-05-13T06:29:39.021Z,37664.00
2023-05-13T06:30:39.397Z,37408.00
2023-05-13T06:31:39.563Z,38176.00
2023-05-13T06:32:47.298Z,37920.00
2023-05-13T06:33:41.331Z,36480.00
2023-05-13T06:34:40.588Z,35872.00
2023-05-13T06:35:40.838Z,37632.00
2023-05-13T06:36:41.027Z,40320.00
2023-05-13T06:37:41.267Z,38880.00
2023-05-13T06:38:41.513Z,41152.00
2023-05-13T06:39:41.863Z,39040.00
2023-05-13T06:40:42.215Z,43008.00
2023-05-13T06:41:42.476Z,38016.00
2023-05-13T06:42:42.718Z,38880.00
2023-05-13T06:43:43.043Z,36544.00
2023-05-13T06:44:43.510Z,33056.00
2023-05-13T06:45:43.674Z,32512.00
2023-05-13T06:46:43.989Z,25344.00
2023-05-13T06:47:44.325Z,15456.00
2023-05-13T06:48:44.593Z,8988.00
2023-05-13T06:49:45.008Z,8252.00
2023-05-13T06:50:45.139Z,7732.00
2023-05-13T06:51:45.468Z,7236.00
2023-05-13T06:52:45.782Z,6764.00
2023-05-13T06:53:46.085Z,6336.00
2023-05-13T06:54:46.581Z,5932.00
2023-05-13T06:55:46.751Z,5560.00
2023-05-13T06:56:47.057Z,5320.00
2023-05-13T06:57:47.370Z,5248.00
2023-05-13T06:58:47.516Z,5236.00
2023-05-13T06:59:47.631Z,5220.00
2023-05-13T07:00:47.941Z,5192.00
2023-05-13T07:01:48.274Z,5164.00
2023-05-13T07:02:48.609Z,5140.00
2023-05-13T07:03:49.057Z,5124.00
2023-05-13T07:04:49.210Z,5100.00
2023-05-13T07:05:49.533Z,5076.00
2023-05-13T07:06:49.766Z,5052.00
2023-05-13T07:07:50.015Z,5024.00
2023-05-13T07:08:50.362Z,5000.00
2023-05-13T07:09:50.547Z,4988.00
2023-05-13T07:10:50.770Z,4976.00
2023-05-13T07:11:51.022Z,4952.00
2023-05-13T07:12:52.094Z,4932.00
2023-05-13T07:13:51.540Z,4908.00
2023-05-13T07:14:51.801Z,4884.00
2023-05-13T07:15:52.043Z,4860.00
2023-05-13T07:16:52.422Z,4836.00
2023-05-13T07:17:52.578Z,4812.00
2023-05-13T07:18:52.948Z,4788.00
2023-05-13T07:19:53.169Z,4760.00
2023-05-13T07:20:53.492Z,4760.00
2023-05-13T07:21:54.002Z,4736.00
2023-05-13T07:22:54.261Z,4720.00
2023-05-13T07:23:54.367Z,4704.00
2023-05-13T07:24:54.729Z,4688.00
2023-05-13T07:25:55.203Z,4672.00
2023-05-13T07:26:55.303Z,4656.00
2023-05-13T07:27:55.549Z,4640.00
2023-05-13T07:28:55.795Z,4620.00
2023-05-13T07:29:56.051Z,4612.00
2023-05-13T07:30:56.433Z,4600.00
2023-05-13T07:31:56.669Z,4572.00
2023-05-13T07:32:57.013Z,4560.00
2023-05-13T07:35:42.806Z,4536.00
2023-05-13T07:36:15.064Z,4528.00
2023-05-13T07:41:07.695Z,4480.00
2023-05-13T07:42:08.092Z,4480.00
2023-05-13T07:43:07.844Z,4464.00
2023-05-13T07:44:08.851Z,4452.00
2023-05-13T07:45:08.475Z,4452.00
2023-05-13T07:46:09.293Z,4436.00
2023-05-13T07:47:09.381Z,4420.00
2023-05-13T07:48:09.818Z,4412.00
2023-05-13T07:49:09.305Z,4388.00
2023-05-13T07:50:09.518Z,4376.00
2023-05-13T07:51:10.868Z,4372.00
2023-05-13T07:52:10.330Z,4356.00
2023-05-13T07:53:10.932Z,4336.00
2023-05-13T07:54:12.452Z,4320.00
2023-05-13T07:55:11.250Z,4308.00
2023-05-13T07:56:12.184Z,4292.00
2023-05-13T07:57:12.513Z,4276.00
2023-05-13T07:58:12.084Z,4272.00
2023-05-13T07:59:12.841Z,4272.00
2023-05-13T08:00:12.597Z,4268.00
2023-05-13T08:01:12.965Z,4260.00
2023-05-13T08:02:13.168Z,4260.00
2023-05-13T08:03:13.722Z,4260.00
2023-05-13T08:04:13.923Z,4252.00
2023-05-13T08:05:14.116Z,4244.00
2023-05-13T08:06:14.180Z,4240.00
2023-05-13T08:07:14.443Z,4224.00
2023-05-13T08:08:14.751Z,4228.00
2023-05-13T08:09:15.041Z,4220.00
2023-05-13T08:10:15.505Z,4204.00
2023-05-13T08:11:15.771Z,4200.00
2023-05-13T08:12:15.965Z,4200.00
2023-05-13T08:13:16.397Z,4196.00
2023-05-13T08:14:16.759Z,4196.00
2023-05-13T08:15:16.678Z,4180.00
2023-05-13T08:16:16.977Z,4168.00
2023-05-13T08:17:17.232Z,4164.00
2023-05-13T08:18:17.606Z,4156.00
2023-05-13T08:19:17.944Z,4144.00
2023-05-13T08:20:18.104Z,4124.00
2023-05-13T08:21:18.448Z,4116.00
2023-05-13T08:22:18.707Z,4120.00
2023-05-13T08:23:18.914Z,4116.00
2023-05-13T08:24:19.150Z,4112.00
2023-05-13T08:25:19.645Z,4092.00
2023-05-13T08:26:19.952Z,4088.00
2023-05-13T08:27:19.988Z,4092.00
2023-05-13T08:28:20.196Z,4080.00
2023-05-13T08:29:20.569Z,4076.00
2023-05-13T08:30:20.876Z,4072.00
2023-05-13T08:31:21.124Z,4072.00
2023-05-13T08:32:21.511Z,4080.00
2023-05-13T08:33:21.804Z,4092.00
2023-05-13T08:34:21.963Z,4080.00
2023-05-13T08:35:22.480Z,4044.00
2023-05-13T08:36:22.486Z,4020.00
2023-05-13T08:37:22.929Z,4012.00
2023-05-13T08:38:23.066Z,4000.00
2023-05-13T08:39:23.430Z,3984.00
2023-05-13T08:40:23.603Z,3976.00
2023-05-13T08:41:23.947Z,3976.00
2023-05-13T08:42:24.113Z,3964.00
2023-05-13T08:43:24.456Z,3952.00
2023-05-13T08:44:24.668Z,3944.00
2023-05-13T08:45:24.919Z,3936.00
2023-05-13T08:46:25.257Z,3928.00
2023-05-13T08:47:25.554Z,3916.00
2023-05-13T08:48:25.798Z,3908.00
2023-05-13T08:49:26.120Z,3912.00
2023-05-13T08:50:26.377Z,3908.00
2023-05-13T08:51:26.653Z,3916.00
2023-05-13T08:52:27.076Z,3920.00
2023-05-13T08:53:27.196Z,3932.00
2023-05-13T08:54:27.536Z,3916.00
2023-05-13T08:55:27.869Z,3536.00
2023-05-13T08:56:28.075Z,3960.00
2023-05-13T08:57:28.446Z,3944.00
2023-05-13T08:58:28.686Z,3936.00
2023-05-13T08:59:28.899Z,3940.00
2023-05-13T09:00:29.274Z,3932.00
2023-05-13T09:01:29.503Z,3944.00
2023-05-13T09:02:29.734Z,4040.00
2023-05-13T09:03:30.083Z,4000.00
2023-05-13T09:04:30.254Z,3976.00
2023-05-13T09:05:30.620Z,3944.00
2023-05-13T09:06:30.857Z,3976.00
2023-05-13T09:07:31.021Z,3996.00
2023-05-13T09:08:31.276Z,3976.00
2023-05-13T09:09:31.582Z,3960.00
2023-05-13T09:10:31.838Z,4036.00
2023-05-13T09:11:32.136Z,4124.00
2023-05-13T09:12:32.364Z,4064.00
2023-05-13T09:13:32.660Z,4076.00
2023-05-13T09:14:32.946Z,4108.00
2023-05-13T09:15:33.345Z,4088.00
2023-05-13T09:16:33.594Z,3892.00
2023-05-13T09:17:33.797Z,4020.00
2023-05-13T09:18:34.369Z,3940.00
2023-05-13T09:19:34.422Z,3956.00
2023-05-13T09:20:34.685Z,3964.00
2023-05-13T09:21:34.830Z,3872.00
2023-05-13T09:22:35.105Z,3924.00
2023-05-13T09:23:35.462Z,4268.00
2023-05-13T09:24:35.764Z,4092.00
2023-05-13T09:25:36.088Z,3640.00
2023-05-13T09:26:36.389Z,3844.00
2023-05-13T09:27:36.753Z,3916.00
2023-05-13T09:28:36.989Z,3908.00
2023-05-13T09:29:37.271Z,3852.00
2023-05-13T09:30:37.608Z,3764.00
2023-05-13T09:31:37.973Z,3792.00
2023-05-13T09:32:38.242Z,3804.00
2023-05-13T09:33:38.573Z,3720.00
2023-05-13T09:34:38.830Z,3780.00
2023-05-13T09:35:39.144Z,3800.00
2023-05-13T09:36:39.537Z,3804.00
2023-05-13T09:37:39.782Z,3788.00
2023-05-13T09:38:40.102Z,3776.00
2023-05-13T09:39:40.498Z,3760.00
2023-05-13T09:40:40.666Z,3800.00
2023-05-13T09:41:41.072Z,3804.00
2023-05-13T09:42:41.256Z,4132.00
2023-05-13T09:43:41.482Z,4032.00
2023-05-13T09:44:41.628Z,3888.00
2023-05-13T09:45:41.907Z,3776.00
2023-05-13T09:46:42.300Z,3788.00
2023-05-13T09:47:42.444Z,3744.00
2023-05-13T09:48:42.748Z,3716.00
2023-05-13T09:49:43.004Z,3708.00
2023-05-13T09:50:43.373Z,3728.00
2023-05-13T09:51:43.602Z,3696.00
2023-05-13T09:52:43.909Z,3876.00
2023-05-13T09:53:44.202Z,3960.00
2023-05-13T09:54:44.509Z,4012.00
2023-05-13T09:55:44.792Z,4032.00
2023-05-13T09:56:45.101Z,3944.00
2023-05-13T09:57:45.425Z,3844.00
2023-05-13T09:58:45.667Z,3540.00
2023-05-13T09:59:45.859Z,3920.00
2023-05-13T10:00:46.442Z,3912.00
2023-05-13T10:01:46.547Z,3976.00
2023-05-13T10:02:46.721Z,3740.00
2023-05-13T10:03:46.911Z,3692.00
2023-05-13T10:04:47.358Z,3100.00
2023-05-13T10:05:47.619Z,3120.00
2023-05-13T10:06:47.852Z,3612.00
2023-05-13T10:07:47.937Z,3628.00
2023-05-13T10:08:48.229Z,3380.00
2023-05-13T10:09:48.562Z,3588.00
2023-05-13T10:10:48.836Z,3592.00
2023-05-13T10:11:49.159Z,3516.00
2023-05-13T10:12:49.455Z,3416.00
2023-05-13T10:13:49.742Z,3640.00
2023-05-13T10:14:50.036Z,3616.00
2023-05-13T10:15:50.424Z,3352.00
2023-05-13T10:16:50.795Z,3504.00
2023-05-13T10:17:50.956Z,3760.00
2023-05-13T10:18:51.154Z,3468.00
2023-05-13T10:19:51.520Z,3320.00
2023-05-13T10:20:51.782Z,3564.00
2023-05-13T10:21:59.509Z,3684.00
2023-05-13T10:22:52.296Z,4028.00
2023-05-13T10:23:52.540Z,3424.00
2023-05-13T10:24:52.785Z,3480.00
2023-05-13T10:25:53.098Z,3984.00
2023-05-13T10:26:53.436Z,4464.00
2023-05-13T10:27:53.708Z,4892.00
2023-05-13T10:28:53.983Z,4932.00
2023-05-13T10:29:54.248Z,4956.00
2023-05-13T10:30:54.764Z,5328.00
2023-05-13T10:31:54.793Z,6176.00
2023-05-13T10:32:55.122Z,6076.00
2023-05-13T10:33:55.263Z,6108.00
2023-05-13T10:34:55.545Z,5376.00
2023-05-13T10:35:55.767Z,4824.00
2023-05-13T10:36:56.894Z,4744.00
2023-05-13T10:37:56.317Z,4764.00
2023-05-13T10:38:56.560Z,4692.00
2023-05-13T10:39:56.812Z,4668.00
2023-05-13T10:40:57.039Z,5096.00
2023-05-13T10:41:58.659Z,5536.00
2023-05-13T10:42:57.602Z,6212.00
2023-05-13T10:43:57.830Z,7004.00
2023-05-13T10:44:58.078Z,7444.00
2023-05-13T10:45:58.386Z,7516.00
2023-05-13T10:46:58.606Z,7228.00
2023-05-13T10:47:58.988Z,6924.00
2023-05-13T10:48:59.156Z,6944.00
2023-05-13T10:50:00.084Z,6968.00
2023-05-13T10:50:59.844Z,7148.00
2023-05-13T10:52:00.162Z,7428.00
2023-05-13T10:53:00.481Z,7160.00
2023-05-13T10:54:00.826Z,6884.00
2023-05-13T10:55:01.030Z,6628.00
2023-05-13T10:56:01.335Z,6396.00
2023-05-13T10:57:02.065Z,5804.00
2023-05-13T10:58:02.214Z,5484.00
2023-05-13T10:59:02.126Z,5048.00
2023-05-13T11:00:02.377Z,4460.00
2023-05-13T11:01:02.682Z,4820.00
2023-05-13T11:02:03.005Z,4720.00
2023-05-13T11:03:03.295Z,4472.00
2023-05-13T11:04:03.738Z,4276.00
2023-05-13T11:05:03.968Z,3712.00
2023-05-13T11:06:04.324Z,3904.00
2023-05-13T11:07:04.600Z,3480.00
2023-05-13T11:08:04.871Z,3512.00
2023-05-13T11:09:05.144Z,3584.00
2023-05-13T11:10:05.396Z,3676.00
2023-05-13T11:11:05.772Z,3904.00
2023-05-13T11:12:05.941Z,4256.00
2023-05-13T11:13:06.213Z,4700.00
2023-05-13T11:14:08.211Z,4836.00
2023-05-13T11:15:06.799Z,5120.00
2023-05-13T11:16:07.149Z,5292.00
2023-05-13T11:17:07.422Z,4372.00
2023-05-13T11:18:07.735Z,4124.00
2023-05-13T11:19:08.099Z,4328.00
2023-05-13T11:20:08.146Z,3972.00
2023-05-13T11:21:08.605Z,4200.00
2023-05-13T11:22:08.668Z,4544.00
2023-05-13T11:23:08.998Z,4028.00
2023-05-13T11:24:09.264Z,3832.00
2023-05-13T11:25:09.564Z,3544.00
2023-05-13T11:26:12.051Z,3992.00
2023-05-13T11:27:10.072Z,3984.00
2023-05-13T11:28:10.401Z,3856.00
2023-05-13T11:29:10.686Z,3832.00
2023-05-13T11:30:11.046Z,4196.00
2023-05-13T11:31:11.220Z,4332.00
2023-05-13T11:32:11.494Z,4516.00
2023-05-13T11:33:11.755Z,4832.00
2023-05-13T11:34:12.036Z,5344.00
2023-05-13T11:35:12.332Z,5932.00
2023-05-13T11:36:12.656Z,6260.00
2023-05-13T11:37:12.807Z,6160.00
2023-05-13T11:38:13.107Z,6200.00
2023-05-13T11:39:13.353Z,6216.00
2023-05-13T11:40:13.630Z,5980.00
2023-05-13T11:41:13.889Z,5544.00
2023-05-13T11:42:14.241Z,5280.00
2023-05-13T11:43:14.448Z,5048.00
2023-05-13T11:44:14.712Z,5068.00
2023-05-13T11:45:15.002Z,4856.00
2023-05-13T11:46:15.295Z,4392.00
2023-05-13T11:47:15.563Z,4260.00
2023-05-13T11:48:15.884Z,4520.00
2023-05-13T11:49:16.485Z,4580.00
2023-05-13T11:50:16.455Z,4424.00
2023-05-13T11:51:16.790Z,4228.00
2023-05-13T11:52:17.126Z,3728.00
2023-05-13T11:53:17.366Z,3672.00
2023-05-13T11:54:17.658Z,3692.00
2023-05-13T11:55:17.943Z,3960.00
2023-05-13T11:56:18.247Z,4192.00
2023-05-13T11:57:18.552Z,4608.00
2023-05-13T11:58:18.842Z,4892.00
2023-05-13T11:59:19.365Z,4824.00
2023-05-13T12:00:19.390Z,5036.00
2023-05-13T12:01:19.633Z,4292.00
2023-05-13T12:02:20.144Z,4372.00
2023-05-13T12:03:20.359Z,4800.00
2023-05-13T12:04:20.486Z,5436.00
2023-05-13T12:05:20.971Z,6020.00
2023-05-13T12:06:21.110Z,6132.00
2023-05-13T12:07:21.404Z,6144.00
2023-05-13T12:08:23.776Z,6516.00
2023-05-13T12:09:21.963Z,7128.00
2023-05-13T12:10:22.216Z,7624.00
2023-05-13T12:11:22.788Z,7728.00
2023-05-13T12:12:23.218Z,7508.00
2023-05-13T12:13:23.157Z,7256.00
2023-05-13T12:14:23.334Z,6776.00
2023-05-13T12:15:23.878Z,6688.00
2023-05-13T12:16:27.338Z,5952.00
2023-05-13T12:17:24.511Z,4788.00
2023-05-13T12:18:24.629Z,3880.00
2023-05-13T12:19:25.133Z,3248.00
2023-05-13T12:20:25.578Z,3016.00
2023-05-13T12:21:25.442Z,3008.00
2023-05-13T12:22:25.592Z,3240.00
2023-05-13T12:23:25.950Z,3868.00
2023-05-13T12:24:26.153Z,3612.00
2023-05-13T12:25:26.488Z,3724.00
2023-05-13T12:26:26.906Z,4680.00
2023-05-13T12:27:27.054Z,5120.00
2023-05-13T12:28:27.390Z,5216.00
2023-05-13T12:29:27.810Z,5120.00